Terminal Aerodrome Forecast
Issued by NWS Bismarck, ND

Home | Current Version | Previous Version | Text Only | Print | Product List | Glossary On
Versions: 1 2 3 4 5 6 7 8 9 10 11 12 13 14 15 16 17 18
000
FTUS43 KBIS 240200 AAA
TAFBIS
TAF AMD
KBIS 240259Z 2403/2424 15011KT P6SM OVC008
     FM241000 21004KT P6SM VCFG SCT008
      TEMPO 2410/2413 2SM BR
     FM241500 22004KT P6SM FEW120=

USA.gov is the U.S. government's official web portal to all federal, state and local government web resources and services.